Time;durP1;ratioP1;P1;durP2;ratioP2;P2;SDS_P1;SDS_P2;PMS_P1;PMS_P2;Temp;Humidity;BMP_temperature;BMP_pressure;BME280_temperature;BME280_humidity;BME280_pressure;Samples;Min_cycle;Max_cycle;Signal;HPM_P1;HPM_P2
2022/02/24 00:00:40;;;;;;;17.83;7.53;;;;;;;0.51;76.52;100591.84;5136678;27;20043;-71
2022/02/24 00:03:09;;;;;;;18.35;7.63;;;;;;;0.44;76.01;100587.28;5136273;27;20515;-69
2022/02/24 00:05:38;;;;;;;15.48;7.28;;;;;;;0.26;76.24;100596.34;5136167;27;20035;-71
2022/02/24 00:08:09;;;;;;;17.83;7.87;;;;;;;0.25;76.26;100592.09;5136461;27;20492;-69
2022/02/24 00:10:38;;;;;;;14.90;8.32;;;;;;;0.42;76.70;100586.34;5136118;27;20054;-71
2022/02/24 00:13:07;;;;;;;13.80;8.10;;;;;;;0.64;76.62;100586.72;5136116;27;20099;-69
2022/02/24 00:15:37;;;;;;;17.15;7.45;;;;;;;0.52;76.40;100576.00;5136001;27;20488;-70
2022/02/24 00:18:06;;;;;;;15.93;7.22;;;;;;;0.38;76.43;100589.47;5136298;27;20074;-69
2022/02/24 00:20:35;;;;;;;20.00;7.95;;;;;;;0.37;76.58;100595.25;5135893;27;20043;-69
2022/02/24 00:23:03;;;;;;;15.43;7.77;;;;;;;0.38;76.69;100589.47;5135911;27;20035;-68
2022/02/24 00:25:34;;;;;;;13.90;6.75;;;;;;;0.65;76.71;100589.28;5135767;27;20051;-70
2022/02/24 00:28:04;;;;;;;16.65;7.35;;;;;;;0.64;76.56;100599.25;5117676;27;20049;-69
2022/02/24 00:30:33;;;;;;;15.32;7.30;;;;;;;0.63;76.36;100597.53;5136002;27;20123;-68
2022/02/24 00:33:02;;;;;;;17.80;7.33;;;;;;;0.63;76.65;100600.03;5135951;27;20495;-71
2022/02/24 00:35:30;;;;;;;15.67;5.70;;;;;;;0.66;76.54;100597.69;5135855;27;20373;-71
2022/02/24 00:38:00;;;;;;;21.95;8.52;;;;;;;0.60;76.65;100597.38;5135818;27;20047;-69
2022/02/24 00:40:29;;;;;;;24.40;9.10;;;;;;;0.72;76.43;100600.50;5135888;27;20058;-69
2022/02/24 00:42:59;;;;;;;19.90;8.87;;;;;;;0.65;76.18;100590.94;5135766;27;20047;-68
2022/02/24 00:45:30;;;;;;;20.67;8.05;;;;;;;0.38;75.99;100592.84;5135438;27;20061;-69
2022/02/24 00:47:59;;;;;;;17.02;8.02;;;;;;;0.17;76.43;100588.31;5135495;27;20118;-71
2022/02/24 00:50:28;;;;;;;20.27;8.38;;;;;;;0.26;76.20;100584.66;5134585;27;20050;-69
2022/02/24 00:52:57;;;;;;;18.95;8.70;;;;;;;0.35;76.18;100584.28;5135646;27;20046;-68
2022/02/24 00:55:28;;;;;;;21.58;8.98;;;;;;;0.34;76.13;100585.03;5135358;27;20100;-68
2022/02/24 00:57:57;;;;;;;16.60;8.50;;;;;;;0.18;76.62;100585.00;5135156;27;20071;-69
2022/02/24 01:00:27;;;;;;;14.82;7.95;;;;;;;0.10;76.95;100592.13;5135136;27;20089;-71
2022/02/24 01:02:57;;;;;;;17.67;8.23;;;;;;;0.10;77.04;100591.28;5135184;27;20071;-68
2022/02/24 01:05:27;;;;;;;15.55;7.55;;;;;;;0.10;77.07;100602.16;5135096;27;20512;-71
2022/02/24 01:07:56;;;;;;;19.23;8.25;;;;;;;0.31;77.30;100594.94;5135288;27;20039;-70
2022/02/24 01:10:25;;;;;;;20.93;8.07;;;;;;;0.33;77.45;100580.84;5135200;27;20046;-69
2022/02/24 01:12:54;;;;;;;13.55;7.75;;;;;;;0.29;76.65;100597.34;5135274;27;20283;-68
2022/02/24 01:15:23;;;;;;;16.33;7.73;;;;;;;0.20;77.16;100593.47;5135232;27;20043;-70
2022/02/24 01:17:53;;;;;;;14.33;7.63;;;;;;;0.19;77.18;100592.66;5135084;27;20051;-69
2022/02/24 01:20:22;;;;;;;16.90;7.78;;;;;;;0.00;76.82;100595.75;5135088;27;20063;-68
2022/02/24 01:22:51;;;;;;;12.63;6.68;;;;;;;-0.06;77.33;100590.41;5134806;27;20043;-69
2022/02/24 01:25:24;;;;;;;14.50;7.38;;;;;;;-0.14;77.26;100589.13;5134825;27;20054;-68
2022/02/24 01:27:53;;;;;;;16.75;7.28;;;;;;;0.03;77.64;100589.19;5134999;27;20078;-69
2022/02/24 01:30:24;;;;;;;19.17;7.65;;;;;;;0.28;77.14;100582.22;5134959;27;20086;-69
2022/02/24 01:32:55;;;;;;;13.77;7.50;;;;;;;0.07;77.21;100591.97;5134679;27;20055;-70
2022/02/24 01:35:26;;;;;;;14.95;6.65;;;;;;;0.05;77.10;100593.50;5134939;27;20284;-68
2022/02/24 01:37:54;;;;;;;14.00;6.95;;;;;;;0.18;77.03;100590.03;5134885;27;20045;-69
2022/02/24 01:40:24;;;;;;;14.13;6.35;;;;;;;0.18;76.77;100595.03;5134536;27;20035;-68
2022/02/24 01:42:53;;;;;;;16.05;7.47;;;;;;;-0.08;76.83;100597.00;5135083;27;20035;-68
2022/02/24 01:45:22;;;;;;;10.10;4.97;;;;;;;-0.16;77.58;100593.19;5134500;27;20592;-66
2022/02/24 01:47:50;;;;;;;17.57;7.13;;;;;;;-0.17;77.39;100586.41;5134453;28;20058;-69
2022/02/24 01:50:21;;;;;;;13.70;6.88;;;;;;;-0.03;77.25;100585.56;5134456;28;20285;-68
2022/02/24 01:52:51;;;;;;;16.10;6.93;;;;;;;0.02;77.19;100587.47;5093088;28;20068;-68
2022/02/24 01:55:20;;;;;;;14.32;6.72;;;;;;;-0.32;76.72;100579.69;5093303;28;20052;-68
2022/02/24 01:57:50;;;;;;;18.63;6.72;;;;;;;-0.39;77.23;100573.47;5092749;28;20032;-67
2022/02/24 02:00:19;;;;;;;15.13;7.65;;;;;;;-0.33;76.99;100573.81;5092657;28;20036;-70
2022/02/24 02:02:48;;;;;;;16.92;7.10;;;;;;;-0.51;77.02;100575.28;5095299;28;20044;-68
2022/02/24 02:05:18;;;;;;;17.83;6.60;;;;;;;-0.42;77.20;100570.78;5096313;28;20051;-68
2022/02/24 02:07:48;;;;;;;18.52;7.78;;;;;;;-0.47;77.17;100568.78;5096555;28;20055;-67
2022/02/24 02:10:18;;;;;;;17.80;7.90;;;;;;;-0.45;77.50;100565.59;5096219;28;20048;-68
2022/02/24 02:12:51;;;;;;;22.30;7.40;;;;;;;-0.50;77.69;100566.97;5096073;28;20036;-70
2022/02/24 02:15:21;;;;;;;17.40;7.70;;;;;;;-0.41;77.69;100575.03;5096488;28;20093;-68
2022/02/24 02:17:50;;;;;;;15.98;7.75;;;;;;;-0.30;78.10;100566.47;5096040;28;20101;-68
2022/02/24 02:20:21;;;;;;;11.68;6.10;;;;;;;-0.18;78.01;100573.81;5095952;28;20044;-68
2022/02/24 02:22:53;;;;;;;16.98;6.55;;;;;;;-0.14;77.84;100571.56;5096285;28;20110;-70
2022/02/24 02:25:22;;;;;;;14.50;5.78;;;;;;;0.07;77.87;100559.34;5096063;28;20052;-70
2022/02/24 02:27:53;;;;;;;15.32;5.60;;;;;;;0.09;77.74;100554.41;5095905;28;20044;-70
2022/02/24 02:30:23;;;;;;;14.27;5.18;;;;;;;0.14;77.93;100548.00;5096126;28;20440;-70
2022/02/24 02:32:51;;;;;;;12.85;5.35;;;;;;;0.21;77.21;100545.91;5096100;28;20128;-67
2022/02/24 02:35:20;;;;;;;11.13;4.60;;;;;;;0.28;77.52;100550.47;5095786;28;20048;-68
2022/02/24 02:37:52;;;;;;;15.77;5.33;;;;;;;0.35;77.02;100549.13;5096267;28;20780;-70
2022/02/24 02:40:22;;;;;;;9.30;4.10;;;;;;;0.41;77.26;100544.44;5095877;28;20040;-69
2022/02/24 02:42:51;;;;;;;8.98;4.50;;;;;;;0.37;76.59;100547.56;5095642;28;20078;-68
2022/02/24 02:45:20;;;;;;;10.55;4.47;;;;;;;0.01;76.07;100546.44;5095908;28;20102;-68
2022/02/24 02:47:49;;;;;;;13.13;4.80;;;;;;;-0.28;76.60;100556.50;5095899;28;20390;-67
2022/02/24 02:50:18;;;;;;;10.60;4.57;;;;;;;-0.26;76.97;100535.75;5095580;28;20277;-69
2022/02/24 02:52:47;;;;;;;13.30;3.70;;;;;;;-0.29;76.71;100534.75;5083999;27;1491873;-68
2022/02/24 02:55:17;;;;;;;15.20;5.45;;;;;;;-0.28;77.01;100532.31;5137919;27;20495;-70
2022/02/24 02:57:46;;;;;;;13.55;5.35;;;;;;;-0.48;76.95;100532.81;5137917;27;20445;-70
2022/02/24 03:00:17;;;;;;;14.23;6.28;;;;;;;-0.51;77.14;100532.69;5137468;27;20070;-70
2022/02/24 03:02:48;;;;;;;14.50;5.55;;;;;;;-0.24;77.40;100531.69;5137482;27;20046;-70
2022/02/24 03:05:17;;;;;;;17.27;7.10;;;;;;;-0.17;77.10;100536.25;5137452;27;20050;-67
2022/02/24 03:07:49;;;;;;;11.82;5.47;;;;;;;-0.37;76.88;100551.88;5137659;27;20053;-70
2022/02/24 03:10:19;;;;;;;13.85;6.03;;;;;;;-0.38;77.09;100545.09;5137938;27;20039;-69
2022/02/24 03:12:50;;;;;;;17.38;5.70;;;;;;;-0.46;77.09;100546.34;5137390;27;20512;-71
2022/02/24 03:15:19;;;;;;;14.13;6.63;;;;;;;-0.69;77.03;100556.69;5137534;27;20047;-70
2022/02/24 03:17:49;;;;;;;14.93;6.63;;;;;;;-0.54;77.18;100554.19;5137185;27;20497;-70
2022/02/24 03:20:18;;;;;;;13.15;5.40;;;;;;;-0.68;76.89;100553.41;5137472;27;20412;-67
2022/02/24 03:22:47;;;;;;;10.23;5.00;;;;;;;-0.90;77.17;100552.94;5137031;27;20100;-69
2022/02/24 03:25:16;;;;;;;14.47;5.13;;;;;;;-0.88;77.27;100543.84;5137343;27;20359;-67
2022/02/24 03:27:47;;;;;;;18.63;6.10;;;;;;;-0.83;77.40;100542.50;5137187;27;20084;-67
2022/02/24 03:30:16;;;;;;;18.85;5.95;;;;;;;-1.05;77.51;100526.97;5136977;27;20040;-70
2022/02/24 03:32:46;;;;;;;14.38;5.43;;;;;;;-0.89;77.96;100549.66;5136834;27;20089;-70
2022/02/24 03:35:16;;;;;;;17.38;6.78;;;;;;;-0.69;78.09;100556.69;5137184;27;20043;-67
2022/02/24 03:37:44;;;;;;;;;;;;;;;-0.73;77.68;100555.66;5137519;27;20043;-70
2022/02/24 03:40:15;;;;;;;12.07;4.97;;;;;;;-0.59;77.85;100558.94;5136725;27;19929;-67
2022/02/24 03:42:48;;;;;;;13.70;4.70;;;;;;;-0.68;77.42;100563.44;5136676;27;20043;-68
2022/02/24 03:45:17;;;;;;;13.80;4.75;;;;;;;-0.72;77.89;100551.50;5136689;27;20039;-67
2022/02/24 03:47:47;;;;;;;13.23;5.03;;;;;;;-0.79;77.59;100549.41;5136643;27;20051;-69
2022/02/24 03:50:16;;;;;;;11.38;4.97;;;;;;;-0.83;77.86;100562.53;5136586;27;20133;-67
2022/02/24 03:52:46;;;;;;;12.15;4.50;;;;;;;-0.69;77.82;100566.69;5136181;27;20050;-68
2022/02/24 03:55:16;;;;;;;11.82;4.53;;;;;;;-0.89;77.66;100555.50;5136762;27;20102;-68
2022/02/24 03:57:47;;;;;;;11.47;5.30;;;;;;;-0.76;77.86;100550.44;5136443;27;20035;-69
2022/02/24 04:00:17;;;;;;;10.48;4.03;;;;;;;-0.84;77.50;100553.31;5136450;27;20043;-68
2022/02/24 04:02:46;;;;;;;12.48;4.35;;;;;;;-0.97;77.96;100559.22;5136629;27;20051;-69
2022/02/24 04:05:16;;;;;;;10.63;3.30;;;;;;;-0.70;78.10;100555.81;5136360;27;20039;-71
2022/02/24 04:07:45;;;;;;;10.63;4.25;;;;;;;-0.76;77.52;100550.44;5136280;27;20051;-68
2022/02/24 04:10:14;;;;;;;10.25;4.43;;;;;;;-0.92;77.63;100544.47;5136139;27;20485;-67
2022/02/24 04:12:43;;;;;;;9.17;3.97;;;;;;;-0.95;77.83;100549.28;5136248;27;20047;-68
2022/02/24 04:15:14;;;;;;;10.88;3.80;;;;;;;-0.99;77.73;100550.78;5136395;27;20039;-67
2022/02/24 04:17:42;;;;;;;10.30;4.22;;;;;;;-1.08;77.81;100544.34;5136027;27;20043;-67
2022/02/24 04:20:11;;;;;;;9.50;3.87;;;;;;;-0.97;78.01;100553.34;5136525;27;20043;-70
2022/02/24 04:22:40;;;;;;;12.23;4.70;;;;;;;-1.14;77.54;100554.00;5136222;27;20101;-67
2022/02/24 04:25:10;;;;;;;7.68;3.63;;;;;;;-1.30;77.99;100551.38;5135030;27;20121;-69
2022/02/24 04:27:47;;;;;;;11.98;6.72;;;;;;;-1.22;77.97;100546.03;5136425;27;20400;-68
2022/02/24 04:30:18;;;;;;;11.30;5.50;;;;;;;-1.37;78.31;100540.97;5136063;27;20050;-69
2022/02/24 04:32:47;;;;;;;13.93;5.38;;;;;;;-1.75;77.76;100520.28;5135667;27;20054;-70
2022/02/24 04:35:17;;;;;;;14.48;5.15;;;;;;;-1.57;78.31;100545.56;5135571;27;20485;-68
2022/02/24 04:37:46;;;;;;;;;;;;;;;-1.57;78.13;100541.41;5135992;27;20051;-70
2022/02/24 04:40:16;;;;;;;10.00;4.53;;;;;;;-1.60;78.13;100538.72;5135528;27;19926;-70
2022/02/24 04:42:45;;;;;;;11.55;4.80;;;;;;;-1.49;78.55;100530.22;5135852;27;20051;-67
2022/02/24 04:45:15;;;;;;;13.88;5.10;;;;;;;-1.33;78.70;100531.16;5135700;27;20088;-70
2022/02/24 04:47:46;;;;;;;13.35;5.03;;;;;;;-1.38;78.61;100526.75;5135979;27;20123;-70
2022/02/24 04:50:16;;;;;;;16.05;5.85;;;;;;;-1.42;79.03;100521.47;5135669;27;20397;-67
2022/02/24 04:52:45;;;;;;;9.85;5.53;;;;;;;-1.27;78.85;100524.00;5135359;27;20116;-65
2022/02/24 04:55:14;;;;;;;14.85;5.95;;;;;;;-1.16;79.21;100530.50;5117104;27;20050;-70
2022/02/24 04:57:43;;;;;;;16.75;6.20;;;;;;;-1.08;79.26;100524.31;5135291;27;20047;-67
2022/02/24 05:00:13;;;;;;;11.68;5.28;;;;;;;-1.15;78.82;100528.09;5135291;27;20045;-67
2022/02/24 05:02:42;;;;;;;10.23;5.55;;;;;;;-1.15;78.55;100527.25;5135145;27;20047;-67
2022/02/24 05:05:12;;;;;;;10.95;4.75;;;;;;;-1.08;78.81;100530.16;5135363;27;20069;-69
2022/02/24 05:07:41;;;;;;;11.15;5.63;;;;;;;-0.98;78.81;100531.56;5135447;27;20126;-67
2022/02/24 05:10:10;;;;;;;19.27;8.33;;;;;;;-0.99;78.38;100525.72;5135350;27;20058;-67
2022/02/24 05:12:39;;;;;;;19.08;7.97;;;;;;;-0.95;78.63;100534.25;5135187;27;20332;-67
2022/02/24 05:15:09;;;;;;;24.25;8.27;;;;;;;-0.96;78.37;100530.88;5134874;27;20031;-69
2022/02/24 05:17:40;;;;;;;19.73;8.35;;;;;;;-0.82;78.48;100524.19;5134915;27;20044;-68
2022/02/24 05:20:13;;;;;;;27.20;8.82;;;;;;;-0.82;78.21;100525.06;5134896;27;20058;-68
2022/02/24 05:22:43;;;;;;;17.83;7.65;;;;;;;-0.78;78.41;100526.09;5134869;27;20078;-67
2022/02/24 05:25:14;;;;;;;17.92;6.80;;;;;;;-0.83;78.17;100527.47;5135006;27;20129;-69
2022/02/24 05:27:43;;;;;;;15.23;6.43;;;;;;;-0.88;78.09;100524.69;5134787;27;20055;-68
2022/02/24 05:30:13;;;;;;;;;;;;;;;-0.87;77.81;100521.41;5135685;27;20081;-69
2022/02/24 05:32:42;;;;;;;;;;;;;;;-0.89;77.99;100517.09;5135685;27;19923;-68
2022/02/24 05:35:13;;;;;;;7.97;3.40;;;;;;;-0.86;77.90;100518.13;5134541;27;20360;-69
2022/02/24 05:37:44;;;;;;;7.55;3.75;;;;;;;-0.97;78.09;100515.78;5134722;27;20273;-69
2022/02/24 05:40:12;;;;;;;9.60;3.20;;;;;;;-0.78;78.10;100504.41;5134899;27;20039;-70
2022/02/24 05:42:44;;;;;;;7.43;3.13;;;;;;;-0.86;77.91;100500.59;5116785;27;20074;-68
2022/02/24 05:45:13;;;;;;;6.70;3.17;;;;;;;-0.77;78.18;100497.75;5134836;27;20126;-68
2022/02/24 05:47:43;;;;;;;7.47;3.67;;;;;;;-0.87;77.74;100465.44;5134503;28;20036;-68
2022/02/24 05:50:13;;;;;;;9.68;3.17;;;;;;;-0.85;77.67;100499.81;5134525;28;20031;-67
2022/02/24 05:52:42;;;;;;;9.10;3.80;;;;;;;-0.81;77.94;100493.31;5134522;28;20047;-71
2022/02/24 05:55:11;;;;;;;6.78;3.50;;;;;;;-0.84;77.91;100489.00;5134694;28;20039;-71
2022/02/24 05:57:42;;;;;;;9.05;3.88;;;;;;;-0.91;77.93;100496.09;5134378;28;20064;-67
2022/02/24 06:00:13;;;;;;;10.68;4.20;;;;;;;-0.87;78.14;100495.50;5134731;28;20035;-70
2022/02/24 06:02:42;;;;;;;10.82;3.78;;;;;;;-0.87;78.07;100503.00;5134572;28;20058;-70
2022/02/24 06:05:11;;;;;;;13.15;4.50;;;;;;;-0.81;78.40;100503.34;5134347;28;20088;-67
2022/02/24 06:07:42;;;;;;;13.88;3.33;;;;;;;-0.65;78.41;100498.44;5134544;28;20497;-71
2022/02/24 06:10:12;;;;;;;10.68;4.07;;;;;;;-0.58;78.27;100482.97;5116130;28;20055;-70
2022/02/24 06:12:42;;;;;;;10.05;4.68;;;;;;;-0.43;78.20;100491.31;5134146;28;20095;-70
2022/02/24 06:15:12;;;;;;;15.80;6.07;;;;;;;-0.32;78.18;100490.28;5116080;28;20043;-70
2022/02/24 06:17:42;;;;;;;25.48;10.30;;;;;;;-0.31;77.86;100492.00;5134116;28;20043;-69
2022/02/24 06:20:11;;;;;;;36.63;13.43;;;;;;;-0.32;77.76;100485.28;5115854;28;20042;-68
2022/02/24 06:22:42;;;;;;;27.38;12.63;;;;;;;-0.25;78.11;100492.38;5134768;28;20043;-69
2022/02/24 06:25:11;;;;;;;31.35;12.00;;;;;;;-0.16;77.79;100489.47;5134189;28;20047;-69
2022/02/24 06:27:40;;;;;;;20.65;9.80;;;;;;;0.03;78.08;100493.84;5134530;28;20088;-69
2022/02/24 06:30:09;;;;;;;22.73;9.10;;;;;;;0.27;77.81;100495.16;5134420;28;20547;-69
2022/02/24 06:32:41;;;;;;;;;;;;;;;0.62;77.73;100490.34;5134508;28;20067;-70
2022/02/24 06:35:12;;;;;;;15.45;5.20;;;;;;;0.71;77.59;100440.56;5134007;28;19920;-70
2022/02/24 06:37:44;;;;;;;10.27;4.40;;;;;;;1.30;76.62;100487.09;5134040;28;20480;-71
2022/02/24 06:40:14;;;;;;;6.97;3.65;;;;;;;1.61;77.20;100486.91;5134419;28;20062;-69
2022/02/24 06:42:43;;;;;;;9.10;4.15;;;;;;;1.89;75.92;100484.06;5134045;28;20117;-68
2022/02/24 06:45:12;;;;;;;6.15;3.15;;;;;;;1.99;75.64;100483.69;5134248;28;20039;-69
2022/02/24 06:47:42;;;;;;;7.22;3.83;;;;;;;2.13;74.82;100485.19;5135000;27;20053;-67
2022/02/24 06:50:11;;;;;;;12.73;4.22;;;;;;;2.36;74.72;100489.59;5137677;27;20496;-66
2022/02/24 06:52:42;;;;;;;9.90;4.60;;;;;;;2.44;73.89;100488.28;5137553;27;20047;-69
2022/02/24 06:55:12;;;;;;;12.02;4.40;;;;;;;2.49;74.22;100481.78;5137521;27;20035;-69
2022/02/24 06:57:43;;;;;;;;;;;;;;;2.57;73.66;100475.41;5138042;27;20051;-70
2022/02/24 07:00:13;;;;;;;8.93;3.65;;;;;;;2.75;73.38;100474.47;5137890;27;19919;-68
2022/02/24 07:02:42;;;;;;;7.25;3.70;;;;;;;2.85;72.67;100474.06;5137765;27;20146;-67
2022/02/24 07:05:12;;;;;;;9.30;3.92;;;;;;;2.91;72.86;100471.81;5137374;27;20049;-70
2022/02/24 07:07:43;;;;;;;9.93;4.10;;;;;;;3.02;72.29;100470.63;5137710;27;20512;-71
2022/02/24 07:10:15;;;;;;;10.15;3.42;;;;;;;3.18;71.87;100466.25;5137407;27;20130;-69
2022/02/24 07:12:45;;;;;;;6.35;3.20;;;;;;;3.27;71.08;100460.72;5137288;27;20546;-71
2022/02/24 07:15:15;;;;;;;5.78;3.17;;;;;;;3.34;70.68;100457.66;5137223;27;20043;-70
2022/02/24 07:17:44;;;;;;;;;;;;;;;3.38;70.77;100462.88;5137939;27;20039;-70
2022/02/24 07:20:14;;;;;;;8.18;2.83;;;;;;;3.48;70.73;100456.53;5137459;27;19919;-71
2022/02/24 07:22:45;;;;;;;8.02;3.17;;;;;;;3.46;70.35;100458.13;5137105;27;20071;-70
2022/02/24 07:25:14;;;;;;;7.45;2.70;;;;;;;3.62;69.55;100455.44;5137381;27;20118;-70
2022/02/24 07:27:44;;;;;;;7.07;2.73;;;;;;;3.48;69.04;100456.53;5137009;27;20051;-70
2022/02/24 07:30:14;;;;;;;8.55;3.30;;;;;;;3.48;69.58;100460.75;5137281;27;20283;-70
2022/02/24 07:32:43;;;;;;;7.75;2.80;;;;;;;3.53;68.63;100460.09;5136837;27;20048;-70
2022/02/24 07:35:12;;;;;;;;;;;;;;;3.66;68.37;100456.41;5137251;27;20047;-72
2022/02/24 07:37:41;;;;;;;8.88;3.65;;;;;;;3.67;68.52;100448.88;5137034;27;19920;-70
2022/02/24 07:40:15;;;;;;;8.13;3.03;;;;;;;3.80;68.22;100453.63;5136827;27;20401;-72
2022/02/24 07:42:47;;;;;;;6.70;3.42;;;;;;;3.94;67.71;100447.41;5136618;27;20404;-72
2022/02/24 07:45:16;;;;;;;6.90;3.25;;;;;;;4.10;68.01;100440.44;5137648;27;20031;-72
2022/02/24 07:47:46;;;;;;;11.95;3.00;;;;;;;4.29;67.59;100438.63;5137014;27;20051;-71
2022/02/24 07:50:15;;;;;;;6.53;2.97;;;;;;;4.44;67.09;100425.69;5135230;27;20096;-73
2022/02/24 07:52:46;;;;;;;10.07;3.22;;;;;;;4.61;66.86;100437.22;5118703;27;20051;-72
2022/02/24 07:55:18;;;;;;;5.53;2.80;;;;;;;4.79;66.90;100431.97;5136223;27;20046;-72
2022/02/24 07:57:47;;;;;;;7.40;3.03;;;;;;;4.78;66.05;100430.22;5136425;27;20043;-71
2022/02/24 08:00:18;;;;;;;9.57;3.13;;;;;;;4.85;66.24;100427.97;5135766;27;20187;-72
2022/02/24 08:02:51;;;;;;;9.60;3.90;;;;;;;5.08;65.68;100431.28;5136534;27;20035;-72
2022/02/24 08:05:21;;;;;;;8.30;3.22;;;;;;;5.33;65.45;100431.25;5136706;27;20067;-70
2022/02/24 08:07:50;;;;;;;10.70;4.40;;;;;;;5.47;65.30;100424.13;5120836;27;20039;-69
2022/02/24 08:10:23;;;;;;;5.57;2.80;;;;;;;5.53;64.77;100414.16;5097798;28;20396;-71
2022/02/24 08:12:52;;;;;;;9.13;3.53;;;;;;;5.84;65.00;100421.88;5115951;28;20043;-71
2022/02/24 08:15:23;;;;;;;7.13;2.90;;;;;;;6.08;64.52;100427.72;5115685;28;20043;-72
2022/02/24 08:17:53;;;;;;;9.95;3.72;;;;;;;6.15;63.79;100422.00;5115526;28;20439;-70
2022/02/24 08:20:24;;;;;;;6.20;2.70;;;;;;;6.19;63.85;100418.72;5115391;28;20050;-72
2022/02/24 08:22:53;;;;;;;7.20;3.35;;;;;;;6.36;63.90;100412.44;5115724;28;20039;-71
2022/02/24 08:25:25;;;;;;;7.47;2.88;;;;;;;6.30;63.34;100414.84;5125543;27;20039;-72
2022/02/24 08:27:55;;;;;;;6.03;2.67;;;;;;;6.07;61.90;100415.84;5126700;27;20042;-71
2022/02/24 08:30:25;;;;;;;7.30;2.90;;;;;;;5.92;61.90;100405.28;5125926;27;20422;-71
2022/02/24 08:32:55;;;;;;;9.83;3.50;;;;;;;6.10;61.91;100393.13;5125837;27;20035;-72
2022/02/24 08:35:27;;;;;;;6.63;2.65;;;;;;;6.31;61.53;100391.19;5124714;27;20044;-72
2022/02/24 08:37:56;;;;;;;6.57;2.70;;;;;;;6.54;61.98;100395.22;5123968;27;20042;-72
2022/02/24 08:40:29;;;;;;;7.35;2.60;;;;;;;6.61;61.56;100386.97;5124539;27;20074;-73
2022/02/24 08:42:59;;;;;;;7.28;3.00;;;;;;;6.53;61.23;100380.81;5123044;27;20047;-72
2022/02/24 08:45:31;;;;;;;6.38;2.95;;;;;;;6.57;60.56;100376.69;5125531;27;20512;-72
2022/02/24 08:48:00;;;;;;;6.65;2.92;;;;;;;6.67;60.32;100373.59;5124454;27;20561;-72
2022/02/24 08:50:30;;;;;;;;;;;;;;;6.76;60.32;100373.81;5124825;27;20118;-71
2022/02/24 08:53:10;;;;;;;8.20;2.93;;;;;;;6.73;59.68;100372.06;5128524;27;19946;-73
2022/02/24 08:55:40;;;;;;;6.30;2.53;;;;;;;6.88;60.22;100373.25;5123929;27;20387;-73
2022/02/24 08:58:09;;;;;;;5.35;2.38;;;;;;;7.21;59.36;100363.94;5123892;27;20509;-70
2022/02/24 09:00:45;;;;;;;11.02;3.33;;;;;;;7.12;59.00;100366.25;5123753;27;20058;-72
2022/02/24 09:03:14;;;;;;;9.25;3.17;;;;;;;7.14;59.02;100362.94;5123073;27;20043;-72
2022/02/24 09:05:45;;;;;;;7.88;2.58;;;;;;;7.16;58.49;100360.41;5128715;27;20073;-72
2022/02/24 09:08:14;;;;;;;7.70;2.63;;;;;;;7.24;58.81;100364.00;5132680;27;20122;-72
2022/02/24 09:10:45;;;;;;;11.35;3.20;;;;;;;7.38;58.46;100352.47;5134841;27;20038;-70
2022/02/24 09:13:14;;;;;;;8.02;2.42;;;;;;;7.58;57.34;100346.19;5134973;27;20066;-72
2022/02/24 09:15:43;;;;;;;7.43;3.45;;;;;;;7.85;57.54;100351.81;5132895;27;20062;-69
2022/02/24 09:18:12;;;;;;;6.82;2.80;;;;;;;8.13;56.28;100342.22;5130227;27;20078;-69
2022/02/24 09:20:41;;;;;;;5.50;2.43;;;;;;;8.28;56.80;100337.47;5127913;27;20042;-70
2022/02/24 09:23:11;;;;;;;8.43;2.95;;;;;;;8.40;56.27;100332.59;5135066;27;20043;-72
2022/02/24 09:25:41;;;;;;;4.93;2.53;;;;;;;8.55;55.43;100328.66;5131680;27;20043;-69
2022/02/24 09:28:12;;;;;;;8.20;3.05;;;;;;;8.67;55.04;100328.00;5134779;27;20552;-69
2022/02/24 09:30:41;;;;;;;8.00;2.90;;;;;;;8.84;53.94;100315.56;5134432;27;20073;-71
2022/02/24 09:33:10;;;;;;;5.68;1.90;;;;;;;9.07;52.93;100325.25;5134690;27;20086;-71
2022/02/24 09:35:41;;;;;;;6.30;2.40;;;;;;;9.25;53.00;100309.41;5134477;27;20035;-71
2022/02/24 09:38:10;;;;;;;6.70;2.58;;;;;;;9.41;51.79;100311.34;5134549;27;20400;-71
2022/02/24 09:40:44;;;;;;;4.95;2.58;;;;;;;9.63;51.27;100303.16;5134400;27;20129;-71
2022/02/24 09:43:31;;;;;;;5.78;3.53;;;;;;;9.74;51.40;100321.16;5134860;27;20043;-71
2022/02/24 09:46:03;;;;;;;5.68;2.70;;;;;;;9.92;50.61;100303.50;5134736;27;20095;-69
2022/02/24 09:48:33;;;;;;;6.32;3.05;;;;;;;10.09;50.56;100294.38;5134512;27;20047;-71
2022/02/24 09:51:05;;;;;;;5.05;2.10;;;;;;;10.22;49.84;100295.41;5134488;28;20058;-71
2022/02/24 09:53:35;;;;;;;5.38;1.85;;;;;;;10.35;48.65;100290.41;5131303;28;20118;-71
2022/02/24 09:56:06;;;;;;;4.05;1.80;;;;;;;10.50;48.36;100293.13;5130386;28;20031;-71
2022/02/24 09:58:36;;;;;;;5.15;1.80;;;;;;;10.32;47.21;100287.84;5132899;28;20548;-71
2022/02/24 10:01:05;;;;;;;6.00;2.22;;;;;;;10.27;47.64;100274.16;5131851;28;20042;-71
2022/02/24 10:03:37;;;;;;;6.70;1.73;;;;;;;10.55;47.63;100281.28;5124656;28;20485;-71
2022/02/24 10:06:06;;;;;;;9.15;2.45;;;;;;;10.90;47.92;100283.22;5128213;28;20031;-71
2022/02/24 10:08:37;;;;;;;6.10;2.45;;;;;;;10.99;47.45;100273.13;5124516;28;20043;-71
2022/02/24 10:11:17;;;;;;;4.53;1.52;;;;;;;11.06;47.78;100278.25;5127195;28;20043;-71
2022/02/24 10:14:03;;;;;;;2.75;1.42;;;;;;;11.11;47.60;100268.09;5134258;28;20055;-71
2022/02/24 10:16:32;;;;;;;3.60;1.55;;;;;;;11.09;46.33;100259.53;5131499;28;20492;-70
2022/02/24 10:19:12;;;;;;;6.78;2.08;;;;;;;11.06;46.73;100256.97;5127280;28;20088;-72
2022/02/24 10:21:41;;;;;;;6.55;2.55;;;;;;;11.10;46.17;100258.69;5122671;27;20431;-72
2022/02/24 10:24:45;;;;;;;4.43;1.70;;;;;;;11.22;46.24;100256.22;5108579;27;20088;-71
2022/02/24 10:27:59;;;;;;;4.50;2.00;;;;;;;11.40;45.57;100246.09;5129080;27;20047;-71
2022/02/24 10:32:05;;;;;;;5.13;2.13;;;;;;;11.41;45.22;100237.59;5128885;27;20439;-71
2022/02/24 10:35:44;;;;;;;6.72;1.80;;;;;;;11.73;44.52;100225.84;5126992;27;20043;-71
2022/02/24 10:38:31;;;;;;;5.63;1.98;;;;;;;11.71;44.48;100221.56;5118633;27;20070;-71
2022/02/24 10:41:00;;;;;;;3.85;1.48;;;;;;;11.57;44.34;100223.16;5137906;27;20500;-71
2022/02/24 10:43:32;;;;;;;4.03;1.80;;;;;;;11.56;43.78;100219.78;5137878;27;20039;-72
2022/02/24 10:46:05;;;;;;;4.85;1.27;;;;;;;11.63;43.90;100208.72;5138340;27;20358;-71
2022/02/24 10:48:49;;;;;;;4.28;1.60;;;;;;;11.50;43.81;100206.09;5137816;27;20070;-71
2022/02/24 10:51:26;;;;;;;2.83;1.20;;;;;;;11.63;43.86;100208.72;5137655;27;20419;-70
2022/02/24 10:54:03;;;;;;;3.92;1.20;;;;;;;11.64;43.70;100195.06;5133064;27;20086;-71
2022/02/24 10:56:33;;;;;;;2.60;1.50;;;;;;;11.73;43.24;100190.03;5137623;27;20039;-71
2022/02/24 10:59:02;;;;;;;4.57;1.40;;;;;;;11.70;42.80;100184.91;5117297;27;20062;-71
2022/02/24 11:01:33;;;;;;;4.38;1.50;;;;;;;12.00;43.01;100195.19;5135998;27;20035;-71
2022/02/24 11:04:04;;;;;;;4.85;1.40;;;;;;;12.05;42.96;100177.28;5132251;27;20043;-72
2022/02/24 11:06:37;;;;;;;5.85;1.45;;;;;;;12.00;42.82;100178.97;5137305;27;20126;-69
2022/02/24 11:09:08;;;;;;;5.18;1.48;;;;;;;11.85;42.23;100154.22;5137394;27;20126;-71
2022/02/24 11:11:38;;;;;;;4.85;1.70;;;;;;;12.24;42.73;100167.94;5137365;27;20133;-71
2022/02/24 11:14:10;;;;;;;3.30;1.30;;;;;;;12.20;42.07;100166.22;5131936;27;20066;-72
2022/02/24 11:16:40;;;;;;;2.72;1.15;;;;;;;12.13;42.13;100154.25;5137223;27;20039;-72
2022/02/24 11:19:10;;;;;;;3.13;1.38;;;;;;;12.23;41.64;100156.84;5119025;27;20055;-72
2022/02/24 11:21:44;;;;;;;2.85;1.38;;;;;;;12.02;40.92;100138.94;5137801;27;20062;-71
2022/02/24 11:24:13;;;;;;;4.63;1.35;;;;;;;12.21;40.69;100147.47;5137090;27;20046;-71
2022/02/24 11:26:53;;;;;;;2.83;1.47;;;;;;;12.30;41.09;100132.09;5137078;27;20081;-71
2022/02/24 11:29:28;;;;;;;5.43;1.60;;;;;;;12.46;41.83;100133.78;5136942;27;20130;-71
2022/02/24 11:32:04;;;;;;;4.88;1.90;;;;;;;12.57;41.93;100127.78;5136976;27;20043;-71
2022/02/24 11:34:55;;;;;;;4.15;1.40;;;;;;;12.64;42.44;100115.84;5136927;27;20043;-71
2022/02/24 11:37:31;;;;;;;3.97;1.60;;;;;;;12.62;42.31;100122.69;5137306;27;20066;-70
2022/02/24 11:40:04;;;;;;;4.50;1.75;;;;;;;12.23;42.84;100115.03;5137399;27;20077;-70
2022/02/24 11:42:36;;;;;;;3.00;1.42;;;;;;;12.10;42.70;100129.53;5137404;27;20491;-69
2022/02/24 11:45:31;;;;;;;4.32;2.08;;;;;;;12.19;43.39;100113.34;5136693;27;20047;-71